Time;durP1;ratioP1;P1;durP2;ratioP2;P2;SDS_P1;SDS_P2;PMS_P1;PMS_P2;Temp;Humidity;BMP_temperature;BMP_pressure;BME280_temperature;BME280_humidity;BME280_pressure;Samples;Min_cycle;Max_cycle;Signal;HPM_P1;HPM_P2
2023/10/14 00:01:28;;;;;;;14.10;5.93;;;17.40;93.60;;;;;;4979894;28;20057;-75
2023/10/14 00:03:56;;;;;;;18.52;6.43;;;17.40;94.00;;;;;;4991896;28;20132;-75
2023/10/14 00:06:25;;;;;;;21.42;7.30;;;17.40;94.30;;;;;;4969767;28;20058;-75
2023/10/14 00:11:22;;;;;;;20.85;6.80;;;17.30;95.60;;;;;;4989357;28;20062;-75
2023/10/14 00:13:52;;;;;;;19.08;7.25;;;17.30;95.90;;;;;;4974391;28;20093;-75
2023/10/14 00:18:59;;;;;;;14.80;6.88;;;17.20;96.60;;;;;;4987095;28;20046;-75
2023/10/14 00:21:27;;;;;;;20.30;7.15;;;17.20;96.50;;;;;;4969387;28;20050;-75
2023/10/14 00:23:57;;;;;;;23.00;7.28;;;17.10;96.70;;;;;;4968570;28;20054;-75
2023/10/14 00:26:25;;;;;;;17.58;7.93;;;17.10;97.00;;;;;;4967008;28;20052;-75
2023/10/14 00:29:04;;;;;;;15.50;6.85;;;17.10;97.20;;;;;;4987409;28;20046;-75
2023/10/14 00:31:34;;;;;;;20.95;6.57;;;17.10;96.70;;;;;;4985856;28;20058;-75
2023/10/14 00:34:01;;;;;;;20.55;6.88;;;17.00;97.10;;;;;;4971023;28;20053;-75
2023/10/14 00:36:31;;;;;;;24.10;7.20;;;17.00;97.40;;;;;;4983281;28;20100;-75
2023/10/14 00:38:58;;;;;;;14.60;6.43;;;17.00;97.50;;;;;;4988750;28;20133;-75
2023/10/14 00:41:26;;;;;;;21.35;6.22;;;17.00;97.40;;;;;;4988696;28;20046;-75
2023/10/14 00:43:53;;;;;;;20.80;6.57;;;16.90;97.70;;;;;;4973353;28;20058;-75
2023/10/14 00:46:30;;;;;;;14.13;6.72;;;17.00;97.50;;;;;;4980832;28;20095;-75
2023/10/14 00:49:00;;;;;;;17.70;7.25;;;17.00;97.70;;;;;;4977625;28;20775;-75
2023/10/14 00:51:30;;;;;;;20.65;7.32;;;16.90;97.80;;;;;;4992105;28;20049;-75
2023/10/14 00:54:10;;;;;;;16.60;6.90;;;16.90;97.50;;;;;;4976241;28;20054;-75
2023/10/14 00:56:41;;;;;;;20.80;7.55;;;17.00;97.70;;;;;;4986706;28;20054;-75
2023/10/14 00:59:09;;;;;;;14.30;7.05;;;17.00;97.50;;;;;;4971512;28;20061;-75
2023/10/14 01:04:31;;;;;;;17.35;7.65;;;17.00;97.70;;;;;;4991406;28;20046;-75
2023/10/14 01:07:04;;;;;;;;;;;;;;;;;;;;;
2023/10/14 01:09:41;;;;;;;17.00;7.13;;;17.00;97.50;;;;;;4992478;28;20124;-75
2023/10/14 01:12:16;;;;;;;24.58;7.30;;;17.00;97.50;;;;;;4985701;28;20081;-75
2023/10/14 01:14:52;;;;;;;23.13;6.90;;;17.10;97.50;;;;;;4990562;28;20799;-75
2023/10/14 01:17:28;;;;;;;19.45;6.95;;;17.10;97.50;;;;;;4997018;23;20045;-75
2023/10/14 01:20:10;;;;;;;16.15;7.72;;;17.10;97.40;;;;;;4993493;28;20069;-75
2023/10/14 01:22:40;;;;;;;29.58;8.00;;;17.20;96.60;;;;;;4992701;28;20150;-75
2023/10/14 01:25:12;;;;;;;17.92;8.95;;;17.20;96.40;;;;;;4962962;28;20117;-75
2023/10/14 01:27:43;;;;;;;23.00;8.00;;;17.30;96.20;;;;;;4979667;28;20060;-75
2023/10/14 01:30:18;;;;;;;16.92;7.97;;;17.30;95.90;;;;;;4993121;28;20660;-75
2023/10/14 01:35:31;;;;;;;23.38;7.03;;;17.40;95.20;;;;;;4986573;28;20426;-75
2023/10/14 01:37:59;;;;;;;13.43;6.80;;;17.40;95.40;;;;;;4986292;28;20078;-75
2023/10/14 01:43:08;;;;;;;15.50;7.88;;;17.50;95.10;;;;;;4986445;28;20101;-75
2023/10/14 01:45:40;;;;;;;17.50;6.78;;;17.50;95.20;;;;;;4986838;28;20456;-75
2023/10/14 01:50:45;;;;;;;16.10;7.22;;;17.50;94.90;;;;;;4984436;28;20054;-75
2023/10/14 01:53:18;;;;;;;16.73;7.40;;;17.50;95.20;;;;;;4968904;28;20236;-75
2023/10/14 01:55:47;;;;;;;19.05;7.47;;;17.50;95.10;;;;;;4988088;28;20077;-75
2023/10/14 01:58:22;;;;;;;7.35;2.50;;;17.50;95.00;;;;;;4984607;28;21850;-75
2023/10/14 02:00:53;;;;;;;4.53;1.10;;;17.10;85.10;;;;;;4967782;28;20125;-75
2023/10/14 02:03:21;;;;;;;5.18;1.05;;;15.80;87.80;;;;;;4986955;28;20046;-75
2023/10/14 02:05:51;;;;;;;2.85;1.45;;;14.90;91.60;;;;;;4974617;28;20075;-75
2023/10/14 02:08:23;;;;;;;7.25;1.17;;;14.50;95.40;;;;;;4987866;28;20131;-75
2023/10/14 02:10:50;;;;;;;5.07;0.90;;;14.00;97.70;;;;;;4988217;28;20081;-75
2023/10/14 02:13:19;;;;;;;4.50;1.08;;;13.70;99.30;;;;;;4972578;28;20050;-75
2023/10/14 02:15:46;;;;;;;5.55;0.90;;;13.40;100.00;;;;;;4970807;28;20046;-75
2023/10/14 02:18:21;;;;;;;4.22;0.90;;;13.10;100.00;;;;;;4990559;28;20077;-75
2023/10/14 02:21:05;;;;;;;7.72;0.82;;;13.00;100.00;;;;;;4987808;28;20873;-75
2023/10/14 02:23:43;;;;;;;7.40;1.30;;;12.90;100.00;;;;;;4986755;28;20085;-75
2023/10/14 02:26:10;;;;;;;2.45;1.08;;;12.90;100.00;;;;;;4986353;28;20060;-74
2023/10/14 02:28:40;;;;;;;7.57;0.98;;;12.80;100.00;;;;;;4969497;28;20105;-75
2023/10/14 02:31:17;;;;;;;4.18;0.73;;;12.70;100.00;;;;;;4986446;28;20499;-74
2023/10/14 02:33:47;;;;;;;3.03;0.60;;;12.70;100.00;;;;;;4985910;28;20061;-75
2023/10/14 02:36:15;;;;;;;3.95;0.80;;;12.60;100.00;;;;;;4983828;28;20069;-74
2023/10/14 02:38:54;;;;;;;2.90;1.52;;;12.60;100.00;;;;;;4986201;28;20149;-75
2023/10/14 02:41:26;;;;;;;10.60;1.20;;;12.60;100.00;;;;;;4984452;28;20042;-75
2023/10/14 02:44:14;;;;;;;6.68;1.17;;;12.60;100.00;;;;;;4987137;28;20042;-75
2023/10/14 02:46:47;;;;;;;6.88;1.25;;;12.50;100.00;;;;;;4965280;28;20101;-75
2023/10/14 02:49:15;;;;;;;9.20;1.58;;;12.50;100.00;;;;;;4985786;28;20046;-75
2023/10/14 02:51:43;;;;;;;7.10;1.45;;;12.50;100.00;;;;;;4985693;28;20104;-75
2023/10/14 02:54:27;;;;;;;7.68;1.50;;;12.50;100.00;;;;;;4988021;28;20061;-75
2023/10/14 02:56:59;;;;;;;6.95;1.23;;;12.40;100.00;;;;;;4985821;28;20690;-75
2023/10/14 02:59:43;;;;;;;12.30;2.00;;;12.40;100.00;;;;;;4969176;28;20053;-76
2023/10/14 03:07:28;;;;;;;4.88;1.08;;;12.40;100.00;;;;;;4986963;28;20638;-76
2023/10/14 03:10:09;;;;;;;6.28;0.88;;;12.40;100.00;;;;;;4980380;28;20061;-75
2023/10/14 03:12:39;;;;;;;7.18;1.00;;;12.40;100.00;;;;;;4964385;28;20137;-75
2023/10/14 03:15:19;;;;;;;4.28;1.20;;;12.40;100.00;;;;;;4978735;28;20943;-74
2023/10/14 03:17:53;;;;;;;7.45;1.15;;;12.50;100.00;;;;;;4984489;28;20057;-75
2023/10/14 03:23:09;;;;;;;7.28;1.13;;;12.50;100.00;;;;;;4989512;28;20105;-75
2023/10/14 03:25:36;;;;;;;5.53;1.25;;;12.40;100.00;;;;;;4996394;23;20050;-70
2023/10/14 03:28:16;;;;;;;10.02;1.27;;;12.40;100.00;;;;;;4984968;28;20193;-70
2023/10/14 03:30:45;;;;;;;6.97;1.23;;;12.40;100.00;;;;;;4966292;28;20046;-70
2023/10/14 03:33:14;;;;;;;4.45;1.10;;;12.40;100.00;;;;;;4973158;28;20050;-70
2023/10/14 03:35:43;;;;;;;10.48;1.25;;;12.40;100.00;;;;;;4992233;28;20050;-70
2023/10/14 03:38:15;;;;;;;9.40;1.23;;;12.40;100.00;;;;;;4985928;28;20109;-70
2023/10/14 03:43:15;;;;;;;4.75;0.65;;;12.40;100.00;;;;;;4983404;28;20045;-70
2023/10/14 03:45:53;;;;;;;4.45;1.23;;;12.40;100.00;;;;;;4985384;28;20161;-70
2023/10/14 03:48:21;;;;;;;8.05;1.05;;;12.40;100.00;;;;;;4965766;28;20080;-70
2023/10/14 03:50:48;;;;;;;5.25;0.80;;;12.40;100.00;;;;;;4987616;28;20097;-70
2023/10/14 03:53:17;;;;;;;2.45;0.90;;;12.40;100.00;;;;;;4986624;28;20054;-70
2023/10/14 03:55:43;;;;;;;3.50;1.05;;;12.40;100.00;;;;;;4964273;28;20055;-70
2023/10/14 03:58:12;;;;;;;9.05;0.85;;;12.40;100.00;;;;;;4964475;28;20046;-70
2023/10/14 04:00:39;;;;;;;1.38;0.98;;;12.30;100.00;;;;;;4986705;28;20058;-70
2023/10/14 04:03:24;;;;;;;2.00;0.90;;;12.30;100.00;;;;;;4969017;28;20050;-70
2023/10/14 04:05:59;;;;;;;3.10;1.05;;;12.20;100.00;;;;;;4979090;28;20056;-70
2023/10/14 04:08:34;;;;;;;1.25;0.60;;;12.20;100.00;;;;;;4958760;28;20050;-70
2023/10/14 04:11:13;;;;;;;2.13;0.80;;;12.20;100.00;;;;;;4984356;28;20097;-70
2023/10/14 04:13:52;;;;;;;15.95;1.08;;;12.20;100.00;;;;;;4970254;28;20059;-70
2023/10/14 04:16:27;;;;;;;2.50;0.82;;;12.10;100.00;;;;;;4980594;28;20116;-70
2023/10/14 04:18:59;;;;;;;;;;;12.10;100.00;;;;;;4985368;28;20101;-70
2023/10/14 04:21:37;;;;;;;5.85;0.70;;;12.10;100.00;;;;;;4976460;28;20021;-70
2023/10/14 04:26:44;;;;;;;4.22;0.95;;;12.10;100.00;;;;;;4983443;28;20622;-70
2023/10/14 04:29:21;;;;;;;3.75;0.80;;;12.10;100.00;;;;;;4964150;28;20065;-70
2023/10/14 04:31:55;;;;;;;1.85;0.80;;;12.10;100.00;;;;;;4983242;28;20588;-70
2023/10/14 04:34:23;;;;;;;4.87;0.80;;;12.10;100.00;;;;;;4987393;28;20227;-70
2023/10/14 04:36:56;;;;;;;5.30;0.98;;;12.00;100.00;;;;;;4980247;28;20305;-70
2023/10/14 04:39:29;;;;;;;1.48;0.90;;;12.00;100.00;;;;;;4960039;28;20209;-70
2023/10/14 04:42:04;;;;;;;6.80;1.00;;;12.00;100.00;;;;;;4967407;28;20051;-70
2023/10/14 04:44:37;;;;;;;6.53;0.80;;;12.10;100.00;;;;;;4964962;28;20384;-70
2023/10/14 04:47:04;;;;;;;4.10;1.00;;;12.10;100.00;;;;;;4984189;28;20047;-70
2023/10/14 04:49:37;;;;;;;1.85;0.98;;;12.10;100.00;;;;;;4965469;28;20495;-70
2023/10/14 04:52:06;;;;;;;12.48;1.20;;;12.00;100.00;;;;;;4964845;28;20109;-70
2023/10/14 04:54:52;;;;;;;9.88;1.50;;;11.70;100.00;;;;;;4986169;28;20407;-70
2023/10/14 04:57:20;;;;;;;18.70;1.38;;;11.50;100.00;;;;;;4982431;28;20050;-70
2023/10/14 04:59:55;;;;;;;8.30;1.25;;;11.40;100.00;;;;;;4985590;28;20108;-70
2023/10/14 05:02:22;;;;;;;13.00;1.80;;;11.20;100.00;;;;;;4986646;28;20130;-70
2023/10/14 05:04:51;;;;;;;11.88;1.35;;;11.00;100.00;;;;;;4968551;28;20069;-70
2023/10/14 05:07:19;;;;;;;19.48;1.98;;;10.90;100.00;;;;;;4986186;28;20046;-70
2023/10/14 05:09:56;;;;;;;12.70;1.35;;;10.80;100.00;;;;;;4991219;28;20580;-70
2023/10/14 05:12:25;;;;;;;10.45;1.58;;;10.70;100.00;;;;;;4964810;28;20522;-70
2023/10/14 05:14:55;;;;;;;15.05;1.45;;;10.60;100.00;;;;;;4973095;28;20550;-70
2023/10/14 05:17:26;;;;;;;19.30;1.48;;;10.60;100.00;;;;;;4969324;28;20104;-70
2023/10/14 05:20:15;;;;;;;12.63;1.40;;;10.50;100.00;;;;;;4985130;28;20157;-69
2023/10/14 05:22:41;;;;;;;19.38;1.50;;;10.50;100.00;;;;;;4983021;28;20057;-70
2023/10/14 05:25:15;;;;;;;14.48;1.98;;;10.40;100.00;;;;;;4986313;28;20157;-71
2023/10/14 05:27:55;;;;;;;12.48;2.10;;;10.40;100.00;;;;;;4983781;28;20050;-70
2023/10/14 05:30:23;;;;;;;20.00;1.73;;;10.40;100.00;;;;;;4982859;28;20423;-70
2023/10/14 05:32:51;;;;;;;7.82;1.45;;;10.40;100.00;;;;;;4985459;28;20110;-70
2023/10/14 05:35:22;;;;;;;14.77;2.40;;;10.40;100.00;;;;;;4983282;28;20054;-70
2023/10/14 05:37:50;;;;;;;12.32;2.45;;;10.40;100.00;;;;;;4987127;28;20057;-70
2023/10/14 05:40:17;;;;;;;9.80;1.20;;;10.40;100.00;;;;;;4989117;28;20050;-70
2023/10/14 05:42:47;;;;;;;15.40;1.83;;;10.40;100.00;;;;;;4971401;28;20101;-70
2023/10/14 05:45:14;;;;;;;10.68;1.63;;;10.40;100.00;;;;;;4985806;28;20185;-70
2023/10/14 05:47:42;;;;;;;11.20;1.40;;;10.50;100.00;;;;;;4985119;28;20050;-71
2023/10/14 05:50:14;;;;;;;9.13;1.70;;;10.40;100.00;;;;;;4983661;28;20050;-70
2023/10/14 05:52:44;;;;;;;10.88;1.88;;;10.50;100.00;;;;;;4981585;28;20047;-70
2023/10/14 05:55:11;;;;;;;10.63;1.40;;;10.40;100.00;;;;;;4981393;28;20057;-70
2023/10/14 05:57:41;;;;;;;26.70;2.08;;;10.40;100.00;;;;;;4984808;28;20254;-69
2023/10/14 06:00:20;;;;;;;14.68;1.58;;;10.30;100.00;;;;;;4984538;28;20069;-70
2023/10/14 06:02:49;;;;;;;15.88;1.92;;;10.30;100.00;;;;;;4967408;28;20403;-70
2023/10/14 06:05:16;;;;;;;19.98;2.45;;;10.20;100.00;;;;;;4984178;23;20265;-70
2023/10/14 06:07:47;;;;;;;14.45;2.22;;;10.20;100.00;;;;;;5003603;28;20042;-70
2023/10/14 06:10:23;;;;;;;16.80;2.88;;;10.20;100.00;;;;;;4999883;28;20100;-70
2023/10/14 06:12:51;;;;;;;19.48;2.15;;;10.20;100.00;;;;;;5000821;28;20060;-70
2023/10/14 06:18:31;;;;;;;24.60;2.38;;;10.10;100.00;;;;;;4979913;28;20046;-70
2023/10/14 06:20:59;;;;;;;20.38;5.07;;;10.10;100.00;;;;;;4981737;28;20046;-70
2023/10/14 06:23:26;;;;;;;25.23;1.90;;;10.10;100.00;;;;;;4966967;28;20043;-70
2023/10/14 06:29:14;;;;;;;6.53;1.63;;;10.10;100.00;;;;;;5002347;28;20069;-70
2023/10/14 06:31:41;;;;;;;18.85;2.60;;;10.20;100.00;;;;;;5005470;28;21467;-69
2023/10/14 06:34:10;;;;;;;16.95;2.20;;;10.20;100.00;;;;;;5002436;28;20046;-70
2023/10/14 06:36:37;;;;;;;26.10;6.85;;;10.20;100.00;;;;;;5003127;28;20072;-70
2023/10/14 06:39:14;;;;;;;29.27;2.47;;;10.30;100.00;;;;;;5003202;28;20108;-70
2023/10/14 06:41:44;;;;;;;26.02;2.50;;;10.40;100.00;;;;;;4999101;28;20073;-70
2023/10/14 06:44:15;;;;;;;16.88;2.15;;;10.60;100.00;;;;;;5001617;28;20038;-70
2023/10/14 06:46:44;;;;;;;13.95;1.90;;;10.70;100.00;;;;;;5000044;28;20074;-70
2023/10/14 06:49:16;;;;;;;15.77;2.40;;;10.80;100.00;;;;;;4999226;28;20045;-70
2023/10/14 06:51:43;;;;;;;14.02;2.03;;;10.80;100.00;;;;;;4996045;28;20077;-69
2023/10/14 06:54:13;;;;;;;16.17;2.20;;;10.80;100.00;;;;;;5021103;28;20058;-70
2023/10/14 06:56:44;;;;;;;18.67;2.15;;;10.80;100.00;;;;;;5002021;28;20581;-70
2023/10/14 06:59:13;;;;;;;13.65;2.15;;;10.90;100.00;;;;;;4995573;28;20582;-70
2023/10/14 07:01:40;;;;;;;15.27;2.00;;;10.80;100.00;;;;;;5001575;28;20132;-70
2023/10/14 07:04:07;;;;;;;13.52;2.60;;;10.90;100.00;;;;;;4999168;28;20406;-70
2023/10/14 07:06:34;;;;;;;17.77;2.22;;;10.90;100.00;;;;;;5002219;28;20065;-69
2023/10/14 07:09:05;;;;;;;17.42;2.15;;;10.90;100.00;;;;;;5017834;28;20049;-69
2023/10/14 07:11:32;;;;;;;23.63;2.00;;;11.00;100.00;;;;;;5000212;28;20050;-70
2023/10/14 07:13:59;;;;;;;10.63;1.63;;;11.00;100.00;;;;;;5001952;28;20050;-70
2023/10/14 07:16:26;;;;;;;10.85;1.60;;;11.00;100.00;;;;;;5001232;28;20049;-70
2023/10/14 07:18:54;;;;;;;15.50;1.95;;;11.10;100.00;;;;;;4998526;28;20049;-70
2023/10/14 07:21:22;;;;;;;15.43;2.60;;;11.10;100.00;;;;;;5001156;28;20508;-71
2023/10/14 07:23:50;;;;;;;23.70;2.17;;;11.20;100.00;;;;;;5000003;28;20050;-70
2023/10/14 07:26:17;;;;;;;23.73;1.83;;;11.20;100.00;;;;;;5003866;28;20045;-77
2023/10/14 07:28:51;;;;;;;5.30;1.80;;;11.30;100.00;;;;;;5019183;28;20743;-72
2023/10/14 07:31:19;;;;;;;21.25;1.67;;;11.30;100.00;;;;;;5018937;28;20874;-72
2023/10/14 07:33:47;;;;;;;23.00;1.95;;;11.30;100.00;;;;;;5000988;28;20057;-71
2023/10/14 07:36:15;;;;;;;16.92;1.60;;;11.40;100.00;;;;;;5002662;28;20053;-71
2023/10/14 07:38:43;;;;;;;9.73;1.77;;;11.40;100.00;;;;;;5000060;28;20093;-72
2023/10/14 07:41:14;;;;;;;16.25;2.00;;;11.40;100.00;;;;;;4999736;28;20454;-72
2023/10/14 07:43:41;;;;;;;13.32;2.42;;;11.50;100.00;;;;;;5004771;28;20046;-72
2023/10/14 07:46:09;;;;;;;19.27;1.88;;;11.50;100.00;;;;;;5002494;28;20113;-70
2023/10/14 07:48:38;;;;;;;16.55;2.13;;;11.50;100.00;;;;;;5002187;28;20255;-69
2023/10/14 07:51:06;;;;;;;12.77;2.08;;;11.60;100.00;;;;;;5001925;28;20100;-69
2023/10/14 07:53:53;;;;;;;9.30;2.13;;;11.60;100.00;;;;;;5001421;28;20052;-69
2023/10/14 07:56:22;;;;;;;17.10;1.98;;;11.60;100.00;;;;;;5001378;28;20139;-69
2023/10/14 07:58:52;;;;;;;15.93;2.58;;;11.70;100.00;;;;;;5000902;28;20135;-69
2023/10/14 08:01:22;;;;;;;17.20;2.35;;;11.70;100.00;;;;;;5015661;28;20120;-69
2023/10/14 08:03:50;;;;;;;14.10;2.63;;;11.80;100.00;;;;;;5000253;28;20061;-69
2023/10/14 08:06:18;;;;;;;38.70;4.80;;;11.90;100.00;;;;;;4999807;28;20638;-69
2023/10/14 08:08:47;;;;;;;45.22;6.63;;;11.90;100.00;;;;;;5001587;28;20050;-69
2023/10/14 08:11:14;;;;;;;21.48;2.55;;;12.00;100.00;;;;;;4997186;28;20058;-73
2023/10/14 08:13:42;;;;;;;13.40;1.60;;;12.00;100.00;;;;;;5000407;28;20134;-71
2023/10/14 08:16:11;;;;;;;19.73;2.22;;;12.00;100.00;;;;;;5016339;28;20062;-70
2023/10/14 08:18:41;;;;;;;17.58;1.77;;;12.10;100.00;;;;;;5001897;28;20057;-71
2023/10/14 08:21:09;;;;;;;16.45;2.20;;;12.20;100.00;;;;;;4998886;28;20510;-70
2023/10/14 08:23:36;;;;;;;13.32;1.75;;;12.20;100.00;;;;;;5001733;28;20046;-71
2023/10/14 08:26:03;;;;;;;13.32;1.73;;;12.30;100.00;;;;;;5001802;28;20163;-70
2023/10/14 08:28:32;;;;;;;16.33;1.90;;;12.40;100.00;;;;;;5003873;28;20535;-70
2023/10/14 08:30:59;;;;;;;7.63;1.52;;;12.40;99.40;;;;;;5001129;28;20128;-70
2023/10/14 08:33:28;;;;;;;12.63;2.47;;;12.40;99.20;;;;;;5002931;28;20081;-70
2023/10/14 08:35:56;;;;;;;9.15;1.70;;;12.30;98.50;;;;;;5006602;28;20156;-70
2023/10/14 08:38:27;;;;;;;28.58;2.63;;;12.30;99.00;;;;;;5000720;28;20081;-70
2023/10/14 08:40:55;;;;;;;20.83;2.22;;;12.30;100.00;;;;;;5002455;28;20123;-70
2023/10/14 08:43:25;;;;;;;18.20;2.33;;;12.40;98.30;;;;;;5004167;28;20096;-70
2023/10/14 08:45:54;;;;;;;13.23;1.65;;;12.40;98.70;;;;;;5002717;28;20046;-70
2023/10/14 08:48:23;;;;;;;15.00;1.98;;;12.40;98.60;;;;;;5001053;28;20061;-70
2023/10/14 08:50:56;;;;;;;14.65;1.90;;;12.50;99.90;;;;;;4999202;28;20124;-70
2023/10/14 08:53:25;;;;;;;15.35;1.90;;;12.60;97.80;;;;;;5004473;28;20056;-70
2023/10/14 08:55:53;;;;;;;15.48;1.60;;;12.60;100.00;;;;;;5004504;28;20085;-70
2023/10/14 08:58:22;;;;;;;22.48;2.28;;;12.70;99.50;;;;;;5020470;28;20060;-70
2023/10/14 09:00:54;;;;;;;14.63;1.77;;;12.90;99.60;;;;;;5020059;28;20069;-70
2023/10/14 09:03:24;;;;;;;15.23;2.30;;;12.90;96.40;;;;;;5003914;28;20041;-70
2023/10/14 09:05:51;;;;;;;13.88;2.40;;;12.90;96.30;;;;;;5004443;28;20120;-70
2023/10/14 09:08:20;;;;;;;14.63;1.75;;;12.90;97.00;;;;;;5000624;28;20622;-70
2023/10/14 09:10:50;;;;;;;16.13;1.90;;;12.90;95.60;;;;;;5001706;28;20554;-70
2023/10/14 09:13:20;;;;;;;17.20;2.10;;;13.00;94.90;;;;;;5012148;28;20781;-70
2023/10/14 09:15:50;;;;;;;12.65;1.40;;;13.00;95.60;;;;;;5004331;28;20165;-70
2023/10/14 09:18:19;;;;;;;16.92;2.17;;;13.00;93.60;;;;;;5004423;28;20060;-72
2023/10/14 09:20:55;;;;;;;16.52;1.90;;;13.00;95.70;;;;;;4998955;28;20188;-70
2023/10/14 09:23:33;;;;;;;17.77;2.05;;;12.90;94.60;;;;;;5003839;28;20046;-70
2023/10/14 09:26:01;;;;;;;15.25;1.65;;;12.90;93.50;;;;;;4995880;28;20456;-71
2023/10/14 09:28:51;;;;;;;21.10;1.90;;;13.00;93.20;;;;;;4999996;28;20092;-71
2023/10/14 09:31:17;;;;;;;11.55;2.17;;;13.10;91.10;;;;;;5000977;28;20128;-70
2023/10/14 09:33:45;;;;;;;19.15;2.00;;;13.00;92.10;;;;;;5003896;28;20134;-71
2023/10/14 09:36:20;;;;;;;11.30;1.42;;;13.00;92.80;;;;;;5001280;28;20131;-70
2023/10/14 09:38:54;;;;;;;;;;;13.00;94.40;;;;;;5004409;28;20132;-69
2023/10/14 09:41:22;;;;;;;14.70;1.67;;;13.30;95.20;;;;;;5018214;28;19933;-70
2023/10/14 09:43:53;;;;;;;17.00;2.40;;;13.70;92.50;;;;;;5003078;28;20053;-69
2023/10/14 09:46:20;;;;;;;8.20;1.77;;;14.20;90.00;;;;;;5016530;28;20139;-70
2023/10/14 09:48:50;;;;;;;11.68;1.38;;;14.30;90.10;;;;;;5002419;28;20058;-69
2023/10/14 09:51:18;;;;;;;11.63;1.48;;;14.20;89.10;;;;;;5001465;28;20062;-70
2023/10/14 09:53:48;;;;;;;13.32;1.77;;;13.90;86.90;;;;;;5001331;28;20360;-70
2023/10/14 09:56:17;;;;;;;10.48;1.40;;;13.80;86.70;;;;;;5002572;28;20052;-70
2023/10/14 09:59:01;;;;;;;14.32;1.58;;;13.70;87.20;;;;;;5012166;28;20053;-70
2023/10/14 10:01:29;;;;;;;13.43;1.48;;;13.50;84.50;;;;;;5001959;28;20112;-70
2023/10/14 10:04:02;;;;;;;6.93;1.30;;;13.40;88.40;;;;;;5001110;28;20521;-70
2023/10/14 10:07:04;;;;;;;11.75;1.67;;;13.30;86.40;;;;;;5001099;28;20077;-70
2023/10/14 10:09:54;;;;;;;4.45;0.90;;;13.30;86.70;;;;;;5002866;28;20045;-70
2023/10/14 10:12:22;;;;;;;15.30;1.83;;;13.50;86.50;;;;;;5002394;28;20133;-70
2023/10/14 10:15:01;;;;;;;8.60;1.27;;;13.60;86.80;;;;;;5002863;28;20462;-69
2023/10/14 10:17:34;;;;;;;10.65;1.58;;;13.60;83.60;;;;;;5018437;28;20049;-70
2023/10/14 10:20:16;;;;;;;9.48;1.50;;;13.70;84.70;;;;;;5003708;28;20634;-70
2023/10/14 10:22:53;;;;;;;10.30;1.23;;;13.90;84.90;;;;;;4999967;28;20663;-70
2023/10/14 10:25:37;;;;;;;27.55;1.73;;;14.30;84.00;;;;;;5004663;28;20055;-70
2023/10/14 10:28:26;;;;;;;17.27;1.55;;;14.60;79.30;;;;;;5013955;28;20054;-69
2023/10/14 10:30:58;;;;;;;16.42;1.65;;;14.50;82.30;;;;;;5004300;28;20476;-70
2023/10/14 10:33:45;;;;;;;8.82;1.45;;;14.70;80.80;;;;;;5003361;28;20045;-71
2023/10/14 10:36:24;;;;;;;12.20;1.73;;;15.10;80.40;;;;;;5017455;28;20050;-68
2023/10/14 10:38:55;;;;;;;18.13;1.58;;;15.30;79.70;;;;;;5001925;28;20056;-68
2023/10/14 10:41:26;;;;;;;15.95;1.65;;;15.40;77.40;;;;;;5003259;28;20129;-69
2023/10/14 10:44:02;;;;;;;12.30;1.80;;;14.90;77.00;;;;;;5003809;28;20041;-68
2023/10/14 10:46:29;;;;;;;9.02;1.77;;;14.80;76.80;;;;;;5003987;28;21426;-68
2023/10/14 10:48:57;;;;;;;7.13;1.38;;;14.80;79.60;;;;;;5003283;28;20049;-68
2023/10/14 10:51:29;;;;;;;9.68;1.58;;;14.80;78.30;;;;;;5002747;28;20061;-68
2023/10/14 10:53:59;;;;;;;14.48;1.30;;;14.90;77.50;;;;;;5004895;28;20057;-68
2023/10/14 10:56:33;;;;;;;14.27;1.63;;;14.90;74.70;;;;;;5002948;28;20061;-68
2023/10/14 10:59:04;;;;;;;12.45;1.80;;;14.80;75.00;;;;;;5003135;28;20053;-68
2023/10/14 11:01:33;;;;;;;11.20;1.23;;;14.50;77.70;;;;;;5015694;28;20049;-68
2023/10/14 11:04:08;;;;;;;7.53;1.38;;;14.40;76.50;;;;;;5021784;28;20073;-68
2023/10/14 11:06:37;;;;;;;18.58;1.58;;;14.40;77.30;;;;;;5006666;28;20045;-68
2023/10/14 11:09:07;;;;;;;12.02;1.20;;;14.20;77.50;;;;;;5000064;28;20065;-67
2023/10/14 11:11:34;;;;;;;10.70;1.55;;;14.10;77.50;;;;;;4999770;28;20060;-67
2023/10/14 11:14:14;;;;;;;16.55;1.77;;;14.40;78.10;;;;;;5017775;28;20165;-68
2023/10/14 11:16:52;;;;;;;14.52;1.50;;;14.80;75.90;;;;;;4999764;28;20127;-68
2023/10/14 11:19:20;;;;;;;9.30;1.10;;;15.00;77.90;;;;;;5003102;28;20097;-69
2023/10/14 11:21:51;;;;;;;15.63;1.48;;;14.70;74.90;;;;;;5003097;28;20056;-68
2023/10/14 11:24:19;;;;;;;5.10;0.50;;;14.60;74.80;;;;;;5001472;28;20054;-68
2023/10/14 11:26:47;;;;;;;6.38;1.00;;;12.80;77.50;;;;;;5003362;28;20534;-71
2023/10/14 11:29:14;;;;;;;8.02;0.98;;;11.60;88.70;;;;;;5003565;28;20442;-70
2023/10/14 11:31:44;;;;;;;9.65;1.35;;;10.90;91.60;;;;;;5002330;28;20045;-70
2023/10/14 11:34:12;;;;;;;9.63;1.25;;;10.20;92.70;;;;;;5000152;28;20061;-69
2023/10/14 11:36:43;;;;;;;6.78;1.60;;;9.70;93.60;;;;;;5002212;28;20073;-69
2023/10/14 11:39:14;;;;;;;11.82;1.25;;;9.40;97.80;;;;;;5000413;28;20153;-70
2023/10/14 11:41:41;;;;;;;5.97;1.10;;;9.30;100.00;;;;;;5001806;28;20486;-69
2023/10/14 11:44:08;;;;;;;6.82;0.68;;;9.40;100.00;;;;;;5003690;28;20151;-69
2023/10/14 11:46:38;;;;;;;8.45;1.15;;;9.60;100.00;;;;;;5016232;28;20104;-69
2023/10/14 11:49:10;;;;;;;5.25;1.25;;;10.10;100.00;;;;;;5001699;28;20060;-70
2023/10/14 11:51:42;;;;;;;10.18;1.30;;;10.60;100.00;;;;;;5024668;28;20053;-69
2023/10/14 11:54:12;;;;;;;8.70;0.75;;;11.10;100.00;;;;;;4997158;28;20061;-70
2023/10/14 11:56:42;;;;;;;8.57;1.00;;;11.10;100.00;;;;;;5004016;28;20687;-70
2023/10/14 11:59:12;;;;;;;12.60;1.00;;;11.10;100.00;;;;;;5001439;28;20156;-70
2023/10/14 12:01:44;;;;;;;13.27;0.98;;;11.10;100.00;;;;;;5001009;28;20049;-69
2023/10/14 12:04:14;;;;;;;13.30;1.15;;;11.00;100.00;;;;;;5006177;28;20128;-70
2023/10/14 12:06:42;;;;;;;11.30;0.85;;;10.90;100.00;;;;;;5005896;28;20545;-70
2023/10/14 12:09:10;;;;;;;10.80;1.20;;;10.80;99.70;;;;;;5005692;28;20046;-69
2023/10/14 12:11:44;;;;;;;6.88;1.30;;;10.80;98.70;;;;;;5007654;28;20054;-69
2023/10/14 12:14:14;;;;;;;11.13;1.25;;;10.70;98.40;;;;;;5021411;28;20053;-69
2023/10/14 12:16:43;;;;;;;10.05;1.17;;;10.70;98.80;;;;;;5023452;28;20216;-70
2023/10/14 12:19:18;;;;;;;9.83;1.10;;;10.70;98.80;;;;;;5004450;28;20477;-69
2023/10/14 12:21:49;;;;;;;9.70;1.35;;;10.80;100.00;;;;;;5024358;28;20305;-67
2023/10/14 12:24:16;;;;;;;13.93;1.95;;;10.90;100.00;;;;;;5006829;28;20537;-69
2023/10/14 12:26:45;;;;;;;9.85;1.02;;;11.00;100.00;;;;;;5013612;28;20064;-67
2023/10/14 12:29:14;;;;;;;6.97;1.30;;;11.20;98.60;;;;;;5020346;28;20132;-69
2023/10/14 12:31:45;;;;;;;10.77;1.30;;;11.40;99.60;;;;;;5005435;28;20049;-69
2023/10/14 12:34:14;;;;;;;14.93;1.80;;;11.30;97.90;;;;;;5007316;28;20771;-69
2023/10/14 12:36:44;;;;;;;6.20;1.10;;;11.30;97.20;;;;;;5028656;28;20696;-69
2023/10/14 12:42:07;;;;;;;11.23;1.50;;;11.50;99.70;;;;;;4982961;28;20070;-70
2023/10/14 12:44:35;;;;;;;9.43;1.00;;;11.90;96.20;;;;;;5025346;28;20172;-70
2023/10/14 12:47:10;;;;;;;6.95;1.35;;;12.30;96.60;;;;;;5006286;28;20054;-67
2023/10/14 12:49:40;;;;;;;11.23;1.13;;;13.20;94.60;;;;;;5001396;28;20184;-72
2023/10/14 12:52:15;;;;;;;5.63;1.15;;;13.80;86.10;;;;;;5000820;28;20064;-73
2023/10/14 12:54:42;;;;;;;4.15;0.52;;;14.00;86.00;;;;;;5004158;28;20042;-69
2023/10/14 12:57:11;;;;;;;7.85;1.35;;;13.80;80.60;;;;;;5016187;28;20581;-70
2023/10/14 12:59:40;;;;;;;4.40;0.50;;;13.70;81.80;;;;;;5004573;28;20418;-70
2023/10/14 13:02:11;;;;;;;6.65;0.85;;;13.60;81.30;;;;;;5003383;28;20050;-70
2023/10/14 13:04:41;;;;;;;3.92;0.55;;;13.60;77.20;;;;;;5003468;28;20057;-70
2023/10/14 13:07:09;;;;;;;3.10;0.50;;;13.70;79.20;;;;;;5003188;28;20522;-71
2023/10/14 13:09:38;;;;;;;6.70;0.50;;;13.70;81.40;;;;;;5006319;28;20054;-70
2023/10/14 13:12:15;;;;;;;4.65;2.15;;;13.60;78.40;;;;;;5016608;28;20490;-70
2023/10/14 13:14:45;;;;;;;4.68;0.60;;;13.30;77.70;;;;;;5001774;28;20057;-69
2023/10/14 13:17:12;;;;;;;2.22;0.50;;;13.40;82.50;;;;;;5003738;28;20104;-70
2023/10/14 13:19:40;;;;;;;5.32;0.57;;;13.50;80.30;;;;;;5005977;28;20483;-69
2023/10/14 13:22:12;;;;;;;5.28;0.63;;;13.40;78.80;;;;;;4998166;28;20077;-70
2023/10/14 13:24:40;;;;;;;1.88;0.52;;;13.40;78.80;;;;;;5000921;28;20097;-69
2023/10/14 13:27:07;;;;;;;5.35;0.40;;;13.30;78.80;;;;;;5000290;28;20380;-69
2023/10/14 13:29:35;;;;;;;2.28;0.68;;;13.30;81.50;;;;;;5001204;28;20525;-69
2023/10/14 13:32:03;;;;;;;5.05;0.85;;;13.10;80.00;;;;;;5016581;28;20050;-69
2023/10/14 13:34:32;;;;;;;9.95;1.13;;;12.80;79.30;;;;;;5001130;28;20057;-69
2023/10/14 13:37:00;;;;;;;3.42;0.90;;;12.90;83.70;;;;;;5003932;28;20077;-69